Time;durP1;ratioP1;P1;durP2;ratioP2;P2;SDS_P1;SDS_P2;PMS_P1;PMS_P2;Temp;Humidity;BMP_temperature;BMP_pressure;BME280_temperature;BME280_humidity;BME280_pressure;Samples;Min_cycle;Max_cycle;Signal;HPM_P1;HPM_P2
2021/05/28 00:02:05;;;;;;;5.32;2.33;;;20.10;54.80;;;;;;5074515;28;20021;-58
2021/05/28 00:04:32;;;;;;;7.72;2.10;;;20.20;55.70;;;;;;5074049;28;20439;-56
2021/05/28 00:07:00;;;;;;;6.55;1.85;;;20.30;53.90;;;;;;5074631;28;20036;-63
2021/05/28 00:09:27;;;;;;;3.95;1.70;;;20.40;55.40;;;;;;5073905;28;20478;-63
2021/05/28 00:11:54;;;;;;;2.78;1.80;;;20.50;55.70;;;;;;5074341;28;20574;-57
2021/05/28 00:14:22;;;;;;;5.00;2.03;;;20.60;55.70;;;;;;5073590;28;20033;-50
2021/05/28 00:16:49;;;;;;;3.67;1.67;;;20.80;53.50;;;;;;5073896;28;20044;-63
2021/05/28 00:19:17;;;;;;;3.83;1.25;;;20.80;54.20;;;;;;5071910;28;20071;-63
2021/05/28 00:21:45;;;;;;;5.72;1.67;;;20.80;53.00;;;;;;5073070;28;20069;-54
2021/05/28 00:24:12;;;;;;;4.90;1.75;;;20.90;55.00;;;;;;5073993;28;20020;-56
2021/05/28 00:26:39;;;;;;;7.30;1.90;;;21.00;54.70;;;;;;5073371;28;20028;-57
2021/05/28 00:29:07;;;;;;;5.38;1.70;;;21.00;53.80;;;;;;5073191;28;20478;-60
2021/05/28 00:31:34;;;;;;;2.67;1.60;;;21.10;50.70;;;;;;5072260;28;20050;-64
2021/05/28 00:34:01;;;;;;;3.55;1.77;;;21.20;54.50;;;;;;5074041;28;20032;-56
2021/05/28 00:36:29;;;;;;;5.43;1.98;;;21.20;53.00;;;;;;5072994;28;20025;-61
2021/05/28 00:38:56;;;;;;;3.13;1.17;;;21.20;52.50;;;;;;5073193;28;20368;-56
2021/05/28 00:41:24;;;;;;;4.85;2.00;;;21.30;52.20;;;;;;5062941;28;20104;-60
2021/05/28 00:43:51;;;;;;;4.30;1.40;;;21.40;51.50;;;;;;5072095;28;20027;-57
2021/05/28 00:46:18;;;;;;;2.55;1.25;;;21.50;49.80;;;;;;5073145;28;20114;-56
2021/05/28 00:48:48;;;;;;;3.53;1.25;;;21.50;52.60;;;;;;5071976;28;20093;-64
2021/05/28 00:51:16;;;;;;;4.57;1.70;;;21.50;52.30;;;;;;5073260;28;20029;-59
2021/05/28 00:53:43;;;;;;;7.00;2.78;;;21.70;50.50;;;;;;5073541;28;20032;-64
2021/05/28 00:56:10;;;;;;;11.07;2.63;;;21.60;52.20;;;;;;5071832;28;20032;-64
2021/05/28 00:58:38;;;;;;;10.15;2.53;;;21.60;51.90;;;;;;5070303;28;20021;-64
2021/05/28 01:01:05;;;;;;;9.70;2.75;;;21.60;52.80;;;;;;5072446;28;20095;-56
2021/05/28 01:03:33;;;;;;;12.18;3.63;;;21.80;51.20;;;;;;5072357;28;20389;-65
2021/05/28 01:06:00;;;;;;;13.45;4.18;;;21.80;51.00;;;;;;5072335;28;20529;-65
2021/05/28 01:08:27;;;;;;;13.18;3.95;;;22.00;50.80;;;;;;5072673;28;20139;-64
2021/05/28 01:10:55;;;;;;;10.00;3.40;;;22.00;50.70;;;;;;5072940;28;20040;-55
2021/05/28 01:13:22;;;;;;;15.43;3.88;;;22.10;51.40;;;;;;5073508;28;20035;-61
2021/05/28 01:15:49;;;;;;;13.38;4.05;;;22.00;51.90;;;;;;5072882;28;20044;-58
2021/05/28 01:18:17;;;;;;;25.38;5.13;;;22.10;50.60;;;;;;5072520;28;20082;-57
2021/05/28 01:20:44;;;;;;;21.23;5.68;;;22.20;51.80;;;;;;5072584;28;20055;-55
2021/05/28 01:23:11;;;;;;;16.15;4.80;;;22.20;50.30;;;;;;5073242;28;20052;-57
2021/05/28 01:25:39;;;;;;;17.05;5.35;;;22.20;50.80;;;;;;5072556;28;20029;-57
2021/05/28 01:28:07;;;;;;;11.32;4.07;;;22.20;51.40;;;;;;5072179;28;20041;-60
2021/05/28 01:30:34;;;;;;;14.45;4.18;;;22.20;51.40;;;;;;5071953;28;20029;-64
2021/05/28 01:33:02;;;;;;;14.68;4.57;;;22.30;51.10;;;;;;5071894;28;20379;-60
2021/05/28 01:35:29;;;;;;;14.93;4.40;;;22.40;50.70;;;;;;5072739;28;20077;-63
2021/05/28 01:37:56;;;;;;;10.68;2.95;;;22.50;51.30;;;;;;5072857;28;20068;-54
2021/05/28 01:40:24;;;;;;;11.95;4.25;;;22.50;50.90;;;;;;5072338;28;20486;-64
2021/05/28 01:42:51;;;;;;;9.13;3.15;;;22.50;50.50;;;;;;5072676;28;20107;-62
2021/05/28 01:45:20;;;;;;;14.65;4.18;;;22.50;50.30;;;;;;5072675;28;20182;-64
2021/05/28 01:47:47;;;;;;;14.45;4.05;;;22.40;52.00;;;;;;5072892;28;20037;-63
2021/05/28 01:50:16;;;;;;;12.75;3.70;;;22.50;49.20;;;;;;5072561;28;20032;-58
2021/05/28 01:52:44;;;;;;;9.20;2.92;;;22.60;48.90;;;;;;5071864;28;20028;-62
2021/05/28 01:55:13;;;;;;;9.23;3.65;;;22.50;50.30;;;;;;5072310;28;20100;-62
2021/05/28 01:57:41;;;;;;;11.90;3.67;;;22.30;49.80;;;;;;5072086;28;20020;-58
2021/05/28 02:00:15;;;;;;;7.25;2.47;;;22.40;49.20;;;;;;5072396;28;20031;-59
2021/05/28 02:02:43;;;;;;;8.90;3.08;;;22.50;51.10;;;;;;5072096;28;20092;-60
2021/05/28 02:05:11;;;;;;;10.98;2.70;;;22.60;49.50;;;;;;5072397;28;20379;-62
2021/05/28 02:07:38;;;;;;;9.07;2.95;;;22.60;49.30;;;;;;5071716;28;20069;-67
2021/05/28 02:10:07;;;;;;;10.82;3.33;;;22.50;51.20;;;;;;5072380;28;20028;-54
2021/05/28 02:12:34;;;;;;;8.55;2.65;;;22.50;50.70;;;;;;5071301;28;20040;-62
2021/05/28 02:15:01;;;;;;;6.63;2.47;;;22.60;47.80;;;;;;5069864;28;20032;-63
2021/05/28 02:17:30;;;;;;;12.57;3.85;;;22.60;51.60;;;;;;5072458;28;20043;-66
2021/05/28 02:19:58;;;;;;;10.73;3.15;;;22.70;51.70;;;;;;5072440;28;20487;-63
2021/05/28 02:22:25;;;;;;;10.10;3.10;;;22.90;49.50;;;;;;5070639;28;20058;-66
2021/05/28 02:24:53;;;;;;;9.57;2.80;;;22.90;49.50;;;;;;5071906;28;20406;-63
2021/05/28 02:27:21;;;;;;;7.07;2.60;;;22.90;49.00;;;;;;5071926;28;20094;-59
2021/05/28 02:29:48;;;;;;;8.00;2.30;;;22.80;50.60;;;;;;5071952;28;20021;-58
2021/05/28 02:32:15;;;;;;;7.90;2.90;;;22.80;49.70;;;;;;5072272;28;20043;-60
2021/05/28 02:34:43;;;;;;;6.05;2.33;;;22.70;50.80;;;;;;5071897;28;20033;-61
2021/05/28 02:37:10;;;;;;;7.18;2.35;;;22.70;51.30;;;;;;5071651;28;20016;-64
2021/05/28 02:39:38;;;;;;;10.27;2.80;;;22.70;49.00;;;;;;5071770;28;20440;-62
2021/05/28 02:42:05;;;;;;;9.48;2.50;;;22.70;48.90;;;;;;5071921;28;20063;-64
2021/05/28 02:44:33;;;;;;;5.05;2.33;;;22.70;49.00;;;;;;5071445;28;20025;-60
2021/05/28 02:47:00;;;;;;;6.25;2.50;;;22.80;50.80;;;;;;5072271;28;20169;-63
2021/05/28 02:49:28;;;;;;;8.43;2.50;;;22.80;49.20;;;;;;5071346;28;20025;-62
2021/05/28 02:51:55;;;;;;;18.35;2.30;;;22.80;48.70;;;;;;5072187;28;20052;-57
2021/05/28 02:54:25;;;;;;;5.00;1.85;;;23.10;46.20;;;;;;5071788;28;20082;-50
2021/05/28 02:56:52;;;;;;;7.95;2.83;;;23.20;47.90;;;;;;5072019;28;20102;-63
2021/05/28 02:59:20;;;;;;;5.13;1.85;;;23.10;48.00;;;;;;5071819;28;20428;-64
2021/05/28 03:01:47;;;;;;;7.88;2.75;;;23.20;50.10;;;;;;5071916;28;20020;-68
2021/05/28 03:04:15;;;;;;;5.70;2.03;;;23.30;47.20;;;;;;5071505;28;20433;-57
2021/05/28 03:06:43;;;;;;;3.97;1.77;;;23.30;47.10;;;;;;5071511;28;20325;-64
2021/05/28 03:09:10;;;;;;;5.75;2.03;;;23.40;48.10;;;;;;5071412;28;20368;-63
2021/05/28 03:11:38;;;;;;;5.28;1.95;;;23.50;49.10;;;;;;5071474;28;20440;-62
2021/05/28 03:14:05;;;;;;;8.38;2.58;;;23.70;45.20;;;;;;5071486;28;20028;-59
2021/05/28 03:16:33;;;;;;;8.30;2.45;;;23.70;46.10;;;;;;5071460;28;20382;-58
2021/05/28 03:19:03;;;;;;;7.75;2.17;;;23.60;46.60;;;;;;5071465;28;20027;-63
2021/05/28 03:24:01;;;;;;;5.30;2.50;;;23.60;48.40;;;;;;5071582;28;20104;-66
2021/05/28 03:26:32;;;;;;;5.22;1.88;;;23.50;49.10;;;;;;5074474;28;20096;-63
2021/05/28 03:29:01;;;;;;;6.13;2.15;;;23.50;48.30;;;;;;5075473;28;20555;-56
2021/05/28 03:31:28;;;;;;;6.15;1.80;;;23.40;50.20;;;;;;5075092;28;20467;-62
2021/05/28 03:33:56;;;;;;;4.40;1.90;;;23.40;49.60;;;;;;5075026;28;20033;-61
2021/05/28 03:36:23;;;;;;;7.18;2.20;;;23.30;48.20;;;;;;5074606;28;20059;-51
2021/05/28 03:38:50;;;;;;;5.68;2.28;;;23.30;48.10;;;;;;5074927;28;20016;-64
2021/05/28 03:41:18;;;;;;;5.93;1.80;;;23.20;50.70;;;;;;5074774;28;20047;-55
2021/05/28 03:43:45;;;;;;;4.68;2.13;;;23.20;48.70;;;;;;5074169;28;20497;-62
2021/05/28 03:46:12;;;;;;;7.05;2.10;;;23.20;48.00;;;;;;5074640;28;20040;-64
2021/05/28 03:48:40;;;;;;;5.50;2.17;;;23.20;48.40;;;;;;5074712;28;20465;-65
2021/05/28 03:51:07;;;;;;;5.10;1.88;;;23.30;47.90;;;;;;5074776;28;20032;-54
2021/05/28 03:53:34;;;;;;;4.63;1.92;;;23.20;50.10;;;;;;5074482;28;20024;-67
2021/05/28 03:56:02;;;;;;;5.38;2.15;;;23.20;50.20;;;;;;5075077;28;20450;-62
2021/05/28 03:58:29;;;;;;;4.00;1.65;;;23.20;47.20;;;;;;5074197;28;20051;-62
2021/05/28 04:00:57;;;;;;;3.97;1.73;;;23.10;47.60;;;;;;5074557;28;20086;-57
2021/05/28 04:03:24;;;;;;;4.30;1.60;;;22.90;47.80;;;;;;5074765;28;20047;-66
2021/05/28 04:05:51;;;;;;;4.88;1.83;;;22.80;49.90;;;;;;5074238;28;20130;-59
2021/05/28 04:08:19;;;;;;;4.75;1.48;;;22.70;50.80;;;;;;5074564;28;20036;-59
2021/05/28 04:10:47;;;;;;;5.82;1.83;;;22.60;48.40;;;;;;5074218;28;20150;-57
2021/05/28 04:13:15;;;;;;;4.70;1.60;;;22.60;49.90;;;;;;5074302;28;20036;-63
2021/05/28 04:15:43;;;;;;;5.32;1.90;;;22.60;49.80;;;;;;5074196;28;20475;-63
2021/05/28 04:18:11;;;;;;;5.97;2.10;;;22.70;50.50;;;;;;5074602;28;20107;-60
2021/05/28 04:20:43;;;;;;;6.45;1.73;;;22.80;51.10;;;;;;5073990;28;20107;-56
2021/05/28 04:23:10;;;;;;;7.05;1.50;;;22.80;49.80;;;;;;5074314;28;20420;-56
2021/05/28 04:25:38;;;;;;;8.85;1.60;;;22.80;48.50;;;;;;5072805;28;20028;-61
2021/05/28 04:28:05;;;;;;;5.55;1.42;;;22.90;49.10;;;;;;5074139;28;20119;-57
2021/05/28 04:30:33;;;;;;;4.53;2.13;;;22.90;49.90;;;;;;5074078;28;20120;-65
2021/05/28 04:33:00;;;;;;;4.13;1.20;;;22.90;50.60;;;;;;5074328;28;20020;-64
2021/05/28 04:35:28;;;;;;;3.78;1.60;;;22.90;48.50;;;;;;5073814;28;20107;-53
2021/05/28 04:37:55;;;;;;;3.65;1.40;;;22.90;48.90;;;;;;5073904;28;20048;-57
2021/05/28 04:40:23;;;;;;;3.45;1.65;;;22.90;48.70;;;;;;5073518;28;20028;-54
2021/05/28 04:42:50;;;;;;;4.22;1.85;;;22.90;47.80;;;;;;5073217;28;20021;-62
2021/05/28 04:45:18;;;;;;;5.05;1.63;;;23.00;51.00;;;;;;5073531;28;20029;-59
2021/05/28 04:47:45;;;;;;;4.55;1.75;;;23.00;50.30;;;;;;5073440;28;20059;-53
2021/05/28 04:50:13;;;;;;;4.10;1.40;;;23.00;49.80;;;;;;5073060;28;20027;-53
2021/05/28 04:52:42;;;;;;;3.33;1.40;;;23.00;48.70;;;;;;5073172;28;20024;-62
2021/05/28 04:55:10;;;;;;;2.75;1.35;;;23.00;50.20;;;;;;5073211;28;20036;-54
2021/05/28 04:57:38;;;;;;;3.72;1.42;;;23.00;48.60;;;;;;5072760;28;20394;-60
2021/05/28 05:00:06;;;;;;;4.55;1.02;;;23.00;48.00;;;;;;5071906;28;20450;-55
2021/05/28 05:02:34;;;;;;;4.18;1.77;;;22.90;48.80;;;;;;5073469;28;20056;-60
2021/05/28 05:05:01;;;;;;;4.45;1.42;;;22.90;49.50;;;;;;5073436;28;20090;-61
2021/05/28 05:07:31;;;;;;;2.72;1.30;;;22.90;48.80;;;;;;5072838;28;20028;-61
2021/05/28 05:09:58;;;;;;;7.60;1.42;;;22.90;50.00;;;;;;5073467;28;20033;-59
2021/05/28 05:12:26;;;;;;;2.75;1.60;;;22.80;49.20;;;;;;5071617;28;20381;-59
2021/05/28 05:14:54;;;;;;;4.38;1.20;;;22.80;50.40;;;;;;5073175;28;20327;-56
2021/05/28 05:17:21;;;;;;;3.03;1.60;;;22.80;47.80;;;;;;5070817;28;20042;-65
2021/05/28 05:19:49;;;;;;;3.35;1.40;;;22.80;49.50;;;;;;5073125;28;20017;-62
2021/05/28 05:22:16;;;;;;;4.55;1.45;;;22.80;50.10;;;;;;5072766;28;20070;-58
2021/05/28 05:24:44;;;;;;;3.15;1.38;;;22.80;47.80;;;;;;5072718;28;20028;-63
2021/05/28 05:27:11;;;;;;;2.30;1.02;;;22.70;50.80;;;;;;5072682;28;20063;-62
2021/05/28 05:29:39;;;;;;;4.43;1.50;;;22.80;50.00;;;;;;5073014;28;20024;-63
2021/05/28 05:32:06;;;;;;;3.35;1.60;;;22.70;50.00;;;;;;5073094;28;20070;-67
2021/05/28 05:34:34;;;;;;;3.78;1.10;;;22.70;48.40;;;;;;5071524;28;20043;-65
2021/05/28 05:37:02;;;;;;;3.03;1.38;;;22.50;48.00;;;;;;5072638;28;20062;-57
2021/05/28 05:39:31;;;;;;;3.50;1.15;;;22.30;48.80;;;;;;5072774;28;20036;-63
2021/05/28 05:42:00;;;;;;;4.43;1.25;;;22.10;48.10;;;;;;5072812;28;20161;-61
2021/05/28 05:44:28;;;;;;;1.45;1.08;;;21.90;47.90;;;;;;5072841;28;20496;-60
2021/05/28 05:46:56;;;;;;;4.00;1.42;;;21.60;50.10;;;;;;5072354;28;20042;-66
2021/05/28 05:49:23;;;;;;;5.40;1.05;;;21.40;51.10;;;;;;5070712;28;20490;-59
2021/05/28 05:51:51;;;;;;;6.35;1.30;;;21.20;49.90;;;;;;5072935;28;20032;-67
2021/05/28 05:54:18;;;;;;;3.63;1.00;;;21.00;51.00;;;;;;5073364;28;20051;-59
2021/05/28 05:56:46;;;;;;;3.17;1.10;;;20.70;50.00;;;;;;5070708;28;20429;-56
2021/05/28 05:59:13;;;;;;;2.30;1.17;;;20.60;49.90;;;;;;5072508;28;20080;-58
2021/05/28 06:01:40;;;;;;;5.50;1.30;;;20.40;53.20;;;;;;5071703;28;20024;-62
2021/05/28 06:04:08;;;;;;;3.03;1.10;;;20.20;53.70;;;;;;5072295;28;20482;-60
2021/05/28 06:06:35;;;;;;;3.50;1.10;;;20.10;53.50;;;;;;5072112;28;20060;-58
2021/05/28 06:09:02;;;;;;;3.20;1.05;;;20.00;53.50;;;;;;5072044;28;20067;-60
2021/05/28 06:11:30;;;;;;;5.10;1.20;;;19.90;55.10;;;;;;5070275;28;20049;-54
2021/05/28 06:13:58;;;;;;;2.55;1.30;;;19.80;54.20;;;;;;5071655;28;20029;-57
2021/05/28 06:16:25;;;;;;;2.80;1.40;;;19.70;53.60;;;;;;5071609;28;20379;-56
2021/05/28 06:18:52;;;;;;;3.33;1.13;;;19.60;55.60;;;;;;5071803;28;20028;-62
2021/05/28 06:21:20;;;;;;;2.28;1.00;;;19.50;55.20;;;;;;5071047;28;20036;-64
2021/05/28 06:23:47;;;;;;;3.28;1.08;;;19.40;55.90;;;;;;5071987;28;20021;-61
2021/05/28 06:26:15;;;;;;;3.90;1.10;;;19.30;55.90;;;;;;5071898;28;20033;-62
2021/05/28 06:28:42;;;;;;;3.20;1.25;;;19.20;56.10;;;;;;5069977;28;20383;-63
2021/05/28 06:31:09;;;;;;;2.58;1.02;;;19.20;56.30;;;;;;5070537;28;20016;-64
2021/05/28 06:33:38;;;;;;;2.50;0.95;;;19.10;56.00;;;;;;5072343;28;20048;-59
2021/05/28 06:36:06;;;;;;;2.75;1.00;;;19.10;56.70;;;;;;5071957;28;20032;-56
2021/05/28 06:38:33;;;;;;;3.45;1.23;;;19.00;56.70;;;;;;5071651;28;20115;-58
2021/05/28 06:41:01;;;;;;;3.83;1.27;;;19.00;57.10;;;;;;5071689;28;20127;-59
2021/05/28 06:43:28;;;;;;;2.95;1.10;;;18.90;57.60;;;;;;5070113;28;20092;-61
2021/05/28 06:45:55;;;;;;;2.83;1.20;;;18.90;57.70;;;;;;5071974;28;20020;-62
2021/05/28 06:48:23;;;;;;;1.13;0.93;;;18.80;57.60;;;;;;5071678;28;20032;-62
2021/05/28 06:50:50;;;;;;;2.53;0.90;;;18.80;57.80;;;;;;5072082;28;20028;-64
2021/05/28 06:53:18;;;;;;;2.45;0.98;;;18.70;57.90;;;;;;5071976;28;20036;-60
2021/05/28 06:55:45;;;;;;;6.55;0.65;;;18.70;56.70;;;;;;5071040;28;20078;-54
2021/05/28 06:58:13;;;;;;;3.90;1.23;;;18.60;57.50;;;;;;5071486;28;20032;-58
2021/05/28 07:00:40;;;;;;;2.78;1.08;;;18.60;57.80;;;;;;5074120;28;20499;-64
2021/05/28 07:03:08;;;;;;;2.03;1.00;;;18.50;58.00;;;;;;5075500;28;20044;-65
2021/05/28 07:05:35;;;;;;;2.80;1.13;;;18.50;58.10;;;;;;5075723;28;20020;-65
2021/05/28 07:08:02;;;;;;;2.65;1.30;;;18.50;57.90;;;;;;5075067;28;20109;-61
2021/05/28 07:10:30;;;;;;;3.92;1.15;;;18.50;56.90;;;;;;5074812;28;20036;-64
2021/05/28 07:12:57;;;;;;;2.20;0.98;;;18.40;57.50;;;;;;5074986;28;20120;-65
2021/05/28 07:15:25;;;;;;;2.42;1.05;;;18.40;58.20;;;;;;5075451;28;20111;-65
2021/05/28 07:17:52;;;;;;;3.90;1.10;;;18.40;58.20;;;;;;5075301;28;20039;-52
2021/05/28 07:20:20;;;;;;;2.30;1.20;;;18.30;57.70;;;;;;5075630;28;20029;-61
2021/05/28 07:22:47;;;;;;;3.30;1.10;;;18.30;58.20;;;;;;5074889;28;20078;-65
2021/05/28 07:25:15;;;;;;;3.97;1.25;;;18.30;58.20;;;;;;5075575;28;20031;-65
2021/05/28 07:27:43;;;;;;;1.80;1.00;;;18.30;58.20;;;;;;5074442;28;20036;-63
2021/05/28 07:30:11;;;;;;;2.30;1.15;;;18.20;58.30;;;;;;5075181;28;20087;-64
2021/05/28 07:32:39;;;;;;;2.40;1.08;;;18.20;57.80;;;;;;5074797;28;20032;-55
2021/05/28 07:35:09;;;;;;;2.33;1.00;;;18.20;58.30;;;;;;5073932;28;20025;-60
2021/05/28 07:37:37;;;;;;;5.85;1.10;;;18.20;58.60;;;;;;5074748;28;20047;-58
2021/05/28 07:40:06;;;;;;;3.78;1.15;;;18.10;58.40;;;;;;5074787;28;20049;-60
2021/05/28 07:42:34;;;;;;;3.40;1.30;;;18.10;58.50;;;;;;5074596;28;20060;-65
2021/05/28 07:45:01;;;;;;;1.67;0.82;;;18.10;58.40;;;;;;5074901;28;20071;-67
2021/05/28 07:47:28;;;;;;;2.95;1.08;;;18.00;58.60;;;;;;5074550;28;20028;-60
2021/05/28 07:49:56;;;;;;;3.60;1.20;;;18.00;58.30;;;;;;5074654;28;20135;-60
2021/05/28 07:52:23;;;;;;;3.90;1.13;;;18.00;58.70;;;;;;5073515;28;20464;-57
2021/05/28 07:54:50;;;;;;;3.20;1.33;;;18.00;58.70;;;;;;5074148;28;20032;-66
2021/05/28 07:57:18;;;;;;;4.75;1.42;;;17.90;58.80;;;;;;5074591;28;20486;-61
2021/05/28 07:59:45;;;;;;;2.22;0.90;;;17.90;58.10;;;;;;5074317;28;20025;-56
2021/05/28 08:02:12;;;;;;;3.00;1.52;;;17.90;58.90;;;;;;5074483;28;20490;-61
2021/05/28 08:04:40;;;;;;;2.92;1.15;;;17.90;57.80;;;;;;5074163;28;20031;-56
2021/05/28 08:07:07;;;;;;;2.72;0.93;;;17.80;58.90;;;;;;5074546;28;20559;-63
2021/05/28 08:09:34;;;;;;;1.65;0.93;;;17.80;58.80;;;;;;5074676;28;20036;-61
2021/05/28 08:12:02;;;;;;;2.35;0.93;;;17.80;58.30;;;;;;5073082;28;20048;-53
2021/05/28 08:14:29;;;;;;;2.88;1.23;;;17.70;57.90;;;;;;5074373;28;20020;-65
2021/05/28 08:16:57;;;;;;;2.40;1.02;;;17.70;58.20;;;;;;5071230;28;20040;-66
2021/05/28 08:19:24;;;;;;;3.08;1.00;;;17.70;58.80;;;;;;5074129;28;20031;-60
2021/05/28 08:21:52;;;;;;;3.75;1.25;;;17.70;58.80;;;;;;5074297;28;20466;-63
2021/05/28 08:24:20;;;;;;;3.25;1.15;;;17.70;58.40;;;;;;5074236;28;20032;-63
2021/05/28 08:26:47;;;;;;;1.48;0.90;;;17.60;58.90;;;;;;5073739;28;20444;-62
2021/05/28 08:29:15;;;;;;;1.98;0.82;;;17.60;58.80;;;;;;5074246;28;20063;-60
2021/05/28 08:31:42;;;;;;;1.83;0.93;;;17.60;58.50;;;;;;5072906;28;20029;-61
2021/05/28 08:34:10;;;;;;;4.25;1.13;;;17.60;58.90;;;;;;5074262;28;20463;-62
2021/05/28 08:36:37;;;;;;;3.00;1.23;;;17.60;59.60;;;;;;5073547;28;20422;-65
2021/05/28 08:39:05;;;;;;;3.72;1.00;;;17.50;59.10;;;;;;5073612;28;20395;-60
2021/05/28 08:41:35;;;;;;;3.33;1.02;;;17.50;59.20;;;;;;5073447;28;20059;-62
2021/05/28 08:44:03;;;;;;;2.72;1.05;;;17.50;59.20;;;;;;5073815;28;20028;-67
2021/05/28 08:46:31;;;;;;;3.08;1.17;;;17.50;59.20;;;;;;5074254;28;20467;-57
2021/05/28 08:48:58;;;;;;;1.70;1.10;;;17.40;58.90;;;;;;5074190;28;20059;-60
2021/05/28 08:51:25;;;;;;;5.10;1.50;;;17.50;59.10;;;;;;5073879;28;20055;-56
2021/05/28 08:53:53;;;;;;;2.42;1.08;;;17.40;59.10;;;;;;5073931;28;20383;-61
2021/05/28 08:56:20;;;;;;;2.67;1.05;;;17.40;58.70;;;;;;5073665;28;20424;-62
2021/05/28 08:58:47;;;;;;;2.25;1.00;;;17.40;59.20;;;;;;5073788;28;20025;-67
2021/05/28 09:01:15;;;;;;;5.40;1.27;;;17.40;59.40;;;;;;5073846;28;20055;-66
2021/05/28 09:03:43;;;;;;;2.20;0.85;;;17.40;59.20;;;;;;5073392;28;20040;-64
2021/05/28 09:06:18;;;;;;;1.42;0.90;;;17.40;59.40;;;;;;5073269;28;20036;-64
2021/05/28 09:08:45;;;;;;;2.22;1.08;;;17.40;59.30;;;;;;5073274;28;20037;-62
2021/05/28 09:11:17;;;;;;;4.25;1.35;;;17.30;59.00;;;;;;5072860;28;20040;-65
2021/05/28 09:13:50;;;;;;;2.75;1.13;;;17.40;59.30;;;;;;5073750;28;20044;-62
2021/05/28 09:16:20;;;;;;;3.42;1.45;;;17.30;59.20;;;;;;5073455;28;20032;-63
2021/05/28 09:18:55;;;;;;;3.10;1.00;;;17.30;59.40;;;;;;5073413;28;20036;-60
2021/05/28 09:21:24;;;;;;;2.38;0.90;;;17.30;59.40;;;;;;5073025;28;20036;-62
2021/05/28 09:23:52;;;;;;;2.60;1.30;;;17.30;59.40;;;;;;5073438;28;20387;-63
2021/05/28 09:26:20;;;;;;;1.50;0.93;;;17.30;59.50;;;;;;5072767;28;20021;-57
2021/05/28 09:28:50;;;;;;;2.63;1.30;;;17.20;59.50;;;;;;5071347;28;20032;-59
2021/05/28 09:31:20;;;;;;;2.03;1.20;;;17.20;59.50;;;;;;5073341;28;20021;-64
2021/05/28 09:33:51;;;;;;;1.80;1.02;;;17.20;59.50;;;;;;5072959;28;20040;-61
2021/05/28 09:36:29;;;;;;;2.60;1.35;;;17.20;59.50;;;;;;5072980;28;20104;-62
2021/05/28 09:39:14;;;;;;;2.47;0.90;;;17.10;59.50;;;;;;5073123;28;20034;-63
2021/05/28 09:41:49;;;;;;;2.42;1.02;;;17.20;59.60;;;;;;5072954;28;20028;-61
2021/05/28 09:44:21;;;;;;;3.10;1.10;;;17.10;59.60;;;;;;5072491;28;20036;-66
2021/05/28 09:47:06;;;;;;;;;;;17.10;59.70;;;;;;5073148;28;20431;-62
2021/05/28 09:49:37;;;;;;;2.95;1.00;;;17.10;59.70;;;;;;5073198;28;19999;-59
2021/05/28 09:52:18;;;;;;;1.95;0.88;;;17.10;59.70;;;;;;5072611;28;20027;-57
2021/05/28 09:55:04;;;;;;;2.53;1.10;;;17.10;59.70;;;;;;5072574;28;20348;-66
2021/05/28 09:57:36;;;;;;;2.00;0.90;;;17.10;59.70;;;;;;5073006;28;20020;-67
2021/05/28 10:00:22;;;;;;;3.20;1.10;;;17.00;59.70;;;;;;5072700;28;20030;-61
2021/05/28 10:02:50;;;;;;;3.22;0.80;;;17.00;59.60;;;;;;5072279;28;20279;-67
2021/05/28 10:05:27;;;;;;;3.13;1.10;;;17.00;59.80;;;;;;5070991;28;20043;-62
2021/05/28 10:07:55;;;;;;;2.78;1.15;;;17.00;59.80;;;;;;5072584;28;20086;-53
2021/05/28 10:10:23;;;;;;;2.58;1.05;;;17.00;59.80;;;;;;5072217;28;20095;-55
2021/05/28 10:12:50;;;;;;;2.63;0.88;;;17.00;59.80;;;;;;5072141;28;20032;-62
2021/05/28 10:15:17;;;;;;;4.20;1.23;;;17.00;59.70;;;;;;5072725;28;20028;-60
2021/05/28 10:17:45;;;;;;;5.30;1.05;;;16.90;59.70;;;;;;5072002;28;20016;-68
2021/05/28 10:20:13;;;;;;;4.05;1.40;;;16.90;59.70;;;;;;5072560;28;20024;-63
2021/05/28 10:22:41;;;;;;;2.60;1.15;;;16.90;59.80;;;;;;5072169;28;20479;-63
2021/05/28 10:25:09;;;;;;;3.13;1.20;;;16.90;59.80;;;;;;5072094;28;20100;-62
2021/05/28 10:27:36;;;;;;;3.88;1.15;;;16.90;59.90;;;;;;5072282;28;20035;-64
2021/05/28 10:30:16;;;;;;;1.88;0.85;;;16.90;59.90;;;;;;5072610;28;20036;-63
2021/05/28 10:32:43;;;;;;;2.45;1.00;;;16.90;60.50;;;;;;5072066;28;20025;-65
2021/05/28 10:35:21;;;;;;;5.15;1.33;;;16.90;60.00;;;;;;5078426;28;20035;-67
2021/05/28 10:37:48;;;;;;;3.42;1.00;;;16.90;59.80;;;;;;5079068;28;20024;-63
2021/05/28 10:40:26;;;;;;;2.58;0.80;;;16.90;60.00;;;;;;5078796;28;20020;-63
2021/05/28 10:43:05;;;;;;;3.08;1.00;;;16.90;60.00;;;;;;5079274;28;20043;-62
2021/05/28 10:46:00;;;;;;;4.05;1.35;;;16.80;59.90;;;;;;5079066;28;20467;-56
2021/05/28 10:48:40;;;;;;;2.60;1.30;;;16.80;60.00;;;;;;5078452;28;20044;-62
2021/05/28 10:51:16;;;;;;;2.65;1.00;;;16.80;59.90;;;;;;5079091;28;20082;-62
2021/05/28 10:53:53;;;;;;;1.55;0.93;;;16.90;60.00;;;;;;5079253;28;20425;-64
2021/05/28 10:56:26;;;;;;;1.55;0.85;;;16.80;60.00;;;;;;5078441;28;20085;-59
2021/05/28 10:58:58;;;;;;;3.00;1.38;;;16.80;60.00;;;;;;5079067;28;20046;-57
2021/05/28 11:01:48;;;;;;;3.70;1.23;;;16.80;59.90;;;;;;5079178;28;20021;-53
2021/05/28 11:04:17;;;;;;;3.25;1.20;;;16.80;60.10;;;;;;5078969;28;20098;-64
2021/05/28 11:06:57;;;;;;;2.65;1.17;;;16.80;60.10;;;;;;5078365;28;20108;-58
2021/05/28 11:09:36;;;;;;;1.80;1.08;;;16.80;60.00;;;;;;5078623;28;20037;-62
2021/05/28 11:12:10;;;;;;;2.22;1.02;;;16.70;60.00;;;;;;5077935;28;20491;-61
2021/05/28 11:14:40;;;;;;;3.22;1.30;;;16.70;60.20;;;;;;5078317;28;20036;-61
2021/05/28 11:17:09;;;;;;;3.35;1.85;;;16.70;60.20;;;;;;5076047;28;20443;-61
2021/05/28 11:19:47;;;;;;;3.83;1.52;;;16.70;60.10;;;;;;5078601;28;20028;-64
2021/05/28 11:22:38;;;;;;;5.20;1.42;;;16.70;59.90;;;;;;5078903;28;20040;-66
2021/05/28 11:25:16;;;;;;;2.38;1.25;;;16.70;59.90;;;;;;5078417;28;20055;-63
2021/05/28 11:27:46;;;;;;;2.10;1.35;;;16.60;60.20;;;;;;5078914;28;20454;-65
2021/05/28 11:30:17;;;;;;;4.97;1.33;;;16.60;60.10;;;;;;5078784;28;20060;-66
2021/05/28 11:32:44;;;;;;;3.70;1.10;;;16.60;60.20;;;;;;5078526;28;20451;-66
2021/05/28 11:35:25;;;;;;;4.88;1.58;;;16.60;60.10;;;;;;5078835;28;20039;-63
2021/05/28 11:37:59;;;;;;;1.65;0.85;;;16.60;60.10;;;;;;5078589;28;20043;-62
2021/05/28 11:40:35;;;;;;;2.72;0.95;;;16.60;60.10;;;;;;5078310;28;20028;-60
2021/05/28 11:43:19;;;;;;;3.83;1.50;;;16.60;60.20;;;;;;5078501;28;20052;-62
2021/05/28 11:45:48;;;;;;;2.38;0.90;;;16.60;60.30;;;;;;5075522;28;20112;-63
2021/05/28 11:48:18;;;;;;;3.10;1.50;;;16.60;60.30;;;;;;5075469;28;20063;-63
2021/05/28 11:50:50;;;;;;;4.07;1.00;;;16.60;60.20;;;;;;5074980;28;20020;-61
2021/05/28 11:53:18;;;;;;;3.38;1.40;;;16.50;60.20;;;;;;5075364;28;20367;-63
2021/05/28 11:55:50;;;;;;;3.92;1.17;;;16.50;60.30;;;;;;5074381;28;20028;-55
2021/05/28 11:58:25;;;;;;;2.70;0.73;;;16.50;60.30;;;;;;5074897;28;20032;-62
2021/05/28 12:00:54;;;;;;;2.72;1.33;;;16.50;60.20;;;;;;5074798;28;20100;-57
2021/05/28 12:03:22;;;;;;;1.85;1.40;;;16.50;60.10;;;;;;5074787;28;20426;-57
2021/05/28 12:05:54;;;;;;;2.75;1.08;;;16.50;60.30;;;;;;5074739;28;20044;-54
2021/05/28 12:08:26;;;;;;;3.47;1.35;;;16.50;60.20;;;;;;5074521;28;20491;-64
2021/05/28 12:10:54;;;;;;;2.43;1.33;;;16.50;60.30;;;;;;5074215;28;20039;-65
2021/05/28 12:13:31;;;;;;;3.45;1.30;;;16.40;60.30;;;;;;5074745;28;20104;-56
2021/05/28 12:16:06;;;;;;;2.33;0.98;;;16.40;60.30;;;;;;5074939;28;20029;-64
2021/05/28 12:18:37;;;;;;;1.45;0.98;;;16.40;60.40;;;;;;5074290;28;20095;-67
2021/05/28 12:21:13;;;;;;;2.97;1.02;;;16.40;60.60;;;;;;5075044;28;20028;-60
2021/05/28 12:23:42;;;;;;;2.70;1.23;;;16.40;60.50;;;;;;5074543;28;20074;-55
2021/05/28 12:26:15;;;;;;;3.10;1.10;;;16.40;60.50;;;;;;5074259;28;20103;-54
2021/05/28 12:28:45;;;;;;;2.30;1.05;;;16.30;60.60;;;;;;5074391;28;20155;-53
2021/05/28 12:31:13;;;;;;;3.35;1.63;;;16.30;60.60;;;;;;5074517;28;20036;-53
2021/05/28 12:33:44;;;;;;;2.65;1.20;;;16.30;60.70;;;;;;5074361;28;20092;-50
2021/05/28 12:36:14;;;;;;;2.30;1.48;;;16.30;60.70;;;;;;5074331;28;20420;-49
2021/05/28 12:38:44;;;;;;;3.70;1.40;;;16.30;60.50;;;;;;5073914;28;20413;-53
2021/05/28 12:41:20;;;;;;;2.17;1.00;;;16.30;60.60;;;;;;5074156;28;20440;-51
2021/05/28 12:43:49;;;;;;;1.92;1.17;;;16.30;60.60;;;;;;5074256;28;20079;-56
2021/05/28 12:46:25;;;;;;;5.57;1.20;;;16.30;60.60;;;;;;5074297;28;20348;-52
2021/05/28 12:49:14;;;;;;;3.08;1.42;;;16.20;60.70;;;;;;5074285;28;20501;-68
2021/05/28 12:51:45;;;;;;;4.15;1.42;;;16.20;60.80;;;;;;5070181;28;20029;-66
2021/05/28 12:54:30;;;;;;;2.22;1.20;;;16.20;60.70;;;;;;5070555;28;20106;-67
2021/05/28 12:57:04;;;;;;;2.35;1.25;;;16.20;60.80;;;;;;5067689;28;20127;-65
2021/05/28 12:59:33;;;;;;;4.75;1.42;;;16.20;60.70;;;;;;5069495;28;20544;-59